createdAt,value
2022-09-15T00:00:03.674Z,0.00
2022-09-15T00:01:03.666Z,0.00
2022-09-15T00:02:03.898Z,0.00
2022-09-15T00:03:03.716Z,0.00
2022-09-15T00:04:03.641Z,0.00
2022-09-15T00:05:03.647Z,0.00
2022-09-15T00:06:03.608Z,0.00
2022-09-15T00:07:03.609Z,0.00
2022-09-15T00:08:03.591Z,0.00
2022-09-15T00:09:03.582Z,0.00
2022-09-15T00:10:03.565Z,0.00
2022-09-15T00:11:03.565Z,0.00
2022-09-15T00:12:03.542Z,0.00
2022-09-15T00:13:03.529Z,0.00
2022-09-15T00:14:03.561Z,0.00
2022-09-15T00:15:03.541Z,0.00
2022-09-15T00:16:03.497Z,0.00
2022-09-15T00:17:03.573Z,0.00
2022-09-15T00:18:03.492Z,0.00
2022-09-15T00:19:03.471Z,0.00
2022-09-15T00:20:03.463Z,0.00
2022-09-15T00:21:03.462Z,0.00
2022-09-15T00:22:03.431Z,0.00
2022-09-15T00:23:03.420Z,0.00
2022-09-15T00:24:03.411Z,0.00
2022-09-15T00:25:03.404Z,0.00
2022-09-15T00:26:03.383Z,0.00
2022-09-15T00:27:03.384Z,0.00
2022-09-15T00:28:03.368Z,0.00
2022-09-15T00:29:03.342Z,0.00
2022-09-15T00:30:03.371Z,0.00
2022-09-15T00:31:03.413Z,0.00
2022-09-15T00:32:03.323Z,0.00
2022-09-15T00:33:03.311Z,0.00
2022-09-15T00:34:03.292Z,0.00
2022-09-15T00:35:03.300Z,0.00
2022-09-15T00:36:03.383Z,0.00
2022-09-15T00:37:03.261Z,0.00
2022-09-15T00:38:03.259Z,0.00
2022-09-15T00:39:03.285Z,0.00
2022-09-15T00:40:03.316Z,0.00
2022-09-15T00:41:03.230Z,0.00
2022-09-15T00:42:03.218Z,0.00
2022-09-15T00:43:03.726Z,0.00
2022-09-15T00:44:03.224Z,0.00
2022-09-15T00:45:03.178Z,0.00
2022-09-15T00:46:03.256Z,0.00
2022-09-15T00:47:18.836Z,0.00
2022-09-15T00:48:04.138Z,0.00
2022-09-15T00:49:03.136Z,0.00
2022-09-15T00:50:03.116Z,0.00
2022-09-15T00:51:03.115Z,0.00
2022-09-15T00:52:03.135Z,0.00
2022-09-15T00:53:03.100Z,0.00
2022-09-15T00:54:03.064Z,0.00
2022-09-15T00:55:03.085Z,0.00
2022-09-15T00:56:03.070Z,0.00
2022-09-15T00:57:03.050Z,0.00
2022-09-15T00:58:03.034Z,0.00
2022-09-15T00:59:03.032Z,0.00
2022-09-15T01:00:03.007Z,0.00
2022-09-15T01:01:03.077Z,0.00
2022-09-15T01:02:03.078Z,0.00
2022-09-15T01:03:02.995Z,0.00
2022-09-15T01:04:02.966Z,0.00
2022-09-15T01:05:02.953Z,0.00
2022-09-15T01:06:02.939Z,0.00
2022-09-15T01:07:03.032Z,0.00
2022-09-15T01:08:02.946Z,0.00
2022-09-15T01:09:02.911Z,0.00
2022-09-15T01:10:02.899Z,0.00
2022-09-15T01:11:02.908Z,0.00
2022-09-15T01:12:02.876Z,0.00
2022-09-15T01:13:02.881Z,0.00
2022-09-15T01:14:02.860Z,0.00
2022-09-15T01:15:02.859Z,0.00
2022-09-15T01:16:02.919Z,0.00
2022-09-15T01:17:02.813Z,0.00
2022-09-15T01:18:02.815Z,0.00
2022-09-15T01:19:02.879Z,0.00
2022-09-15T01:20:02.786Z,0.00
2022-09-15T01:21:02.773Z,0.00
2022-09-15T01:22:02.807Z,0.00
2022-09-15T01:23:02.763Z,0.00
2022-09-15T01:24:02.763Z,0.00
2022-09-15T01:25:02.743Z,0.00
2022-09-15T01:26:02.740Z,0.00
2022-09-15T01:27:18.498Z,0.00
2022-09-15T01:28:03.709Z,0.00
2022-09-15T01:29:02.687Z,0.00
2022-09-15T01:30:02.680Z,0.00
2022-09-15T01:31:02.656Z,0.00
2022-09-15T01:32:02.703Z,0.00
2022-09-15T01:33:02.664Z,0.00
2022-09-15T01:34:02.628Z,0.00
2022-09-15T01:35:02.616Z,0.00
2022-09-15T01:36:02.622Z,0.00
2022-09-15T01:37:02.610Z,0.00
2022-09-15T01:38:02.584Z,0.00
2022-09-15T01:39:02.588Z,0.00
2022-09-15T01:40:02.664Z,0.00
2022-09-15T01:41:02.573Z,0.00
2022-09-15T01:42:02.546Z,0.00
2022-09-15T01:43:02.551Z,0.00
2022-09-15T01:44:02.520Z,0.00
2022-09-15T01:45:02.507Z,0.00
2022-09-15T01:46:02.519Z,0.00
2022-09-15T01:47:02.495Z,0.00
2022-09-15T01:48:02.478Z,0.00
2022-09-15T01:49:02.481Z,0.00
2022-09-15T01:50:02.462Z,0.00
2022-09-15T01:51:02.475Z,0.00
2022-09-15T01:52:02.436Z,0.00
2022-09-15T01:53:02.416Z,0.00
2022-09-15T01:54:02.412Z,0.00
2022-09-15T01:55:02.414Z,0.00
2022-09-15T01:56:02.419Z,0.00
2022-09-15T01:57:02.402Z,0.00
2022-09-15T01:58:02.370Z,0.00
2022-09-15T01:59:02.358Z,0.00
2022-09-15T02:00:02.362Z,0.00
2022-09-15T02:01:02.460Z,0.00
2022-09-15T02:02:02.369Z,0.00
2022-09-15T02:03:02.308Z,0.00
2022-09-15T02:04:02.305Z,0.00
2022-09-15T02:05:02.289Z,0.00
2022-09-15T02:06:02.275Z,0.00
2022-09-15T02:07:02.273Z,0.00
2022-09-15T02:08:02.258Z,0.00
2022-09-15T02:09:02.232Z,0.00
2022-09-15T02:10:02.230Z,0.00
2022-09-15T02:11:02.223Z,0.00
2022-09-15T02:12:02.228Z,0.00
2022-09-15T02:13:02.188Z,0.00
2022-09-15T02:14:02.242Z,0.00
2022-09-15T02:15:02.213Z,0.00
2022-09-15T02:16:02.215Z,0.00
2022-09-15T02:17:02.150Z,0.00
2022-09-15T02:18:02.149Z,0.00
2022-09-15T02:19:02.125Z,0.00
2022-09-15T02:20:02.157Z,0.00
2022-09-15T02:21:02.120Z,0.00
2022-09-15T02:22:02.102Z,0.00
2022-09-15T02:23:02.081Z,0.00
2022-09-15T02:24:02.079Z,0.00
2022-09-15T02:25:02.078Z,0.00
2022-09-15T02:26:02.055Z,0.00
2022-09-15T02:27:02.061Z,0.00
2022-09-15T02:28:02.048Z,0.00
2022-09-15T02:29:02.015Z,0.00
2022-09-15T02:30:02.015Z,0.00
2022-09-15T02:31:02.026Z,0.00
2022-09-15T02:32:06.764Z,0.00
2022-09-15T02:33:02.981Z,0.00
2022-09-15T02:34:01.976Z,0.00
2022-09-15T02:35:01.959Z,0.00
2022-09-15T02:36:01.939Z,0.00
2022-09-15T02:37:01.938Z,0.00
2022-09-15T02:38:01.931Z,0.00
2022-09-15T02:39:01.909Z,0.00
2022-09-15T02:40:01.985Z,0.00
2022-09-15T02:41:01.896Z,0.00
2022-09-15T02:42:01.865Z,0.00
2022-09-15T02:43:01.874Z,0.00
2022-09-15T02:44:01.886Z,0.00
2022-09-15T02:45:01.847Z,0.00
2022-09-15T02:46:01.889Z,0.00
2022-09-15T02:47:01.820Z,0.00
2022-09-15T02:48:01.808Z,0.00
2022-09-15T02:49:01.793Z,0.00
2022-09-15T02:50:01.780Z,0.00
2022-09-15T02:51:01.799Z,0.00
2022-09-15T02:52:01.767Z,0.00
2022-09-15T02:53:01.751Z,0.00
2022-09-15T02:54:01.808Z,0.00
2022-09-15T02:55:01.737Z,0.00
2022-09-15T02:56:01.728Z,0.00
2022-09-15T02:57:01.707Z,0.00
2022-09-15T02:58:01.712Z,0.00
2022-09-15T02:59:01.764Z,0.00
2022-09-15T03:00:01.698Z,0.00
2022-09-15T03:01:01.727Z,0.00
2022-09-15T03:02:01.733Z,0.00
2022-09-15T03:03:01.633Z,0.00
2022-09-15T03:04:01.626Z,0.00
2022-09-15T03:05:01.692Z,0.00
2022-09-15T03:06:01.613Z,0.00
2022-09-15T03:07:01.600Z,0.00
2022-09-15T03:08:01.579Z,0.00
2022-09-15T03:09:01.568Z,0.00
2022-09-15T03:10:01.567Z,0.00
2022-09-15T03:11:01.558Z,0.00
2022-09-15T03:12:01.552Z,0.00
2022-09-15T03:13:01.525Z,0.00
2022-09-15T03:14:01.523Z,0.00
2022-09-15T03:15:01.508Z,0.00
2022-09-15T03:16:01.588Z,0.00
2022-09-15T03:17:01.499Z,0.00
2022-09-15T03:18:01.497Z,0.00
2022-09-15T03:19:01.470Z,0.00
2022-09-15T03:20:01.451Z,0.00
2022-09-15T03:21:01.437Z,0.00
2022-09-15T03:22:01.435Z,0.00
2022-09-15T03:23:01.417Z,0.00
2022-09-15T03:24:01.421Z,0.00
2022-09-15T03:25:01.386Z,0.00
2022-09-15T03:26:01.381Z,0.00
2022-09-15T03:27:01.380Z,0.00
2022-09-15T03:28:01.359Z,0.00
2022-09-15T03:29:01.376Z,0.00
2022-09-15T03:30:01.332Z,0.00
2022-09-15T03:31:01.329Z,0.00
2022-09-15T03:32:01.340Z,0.00
2022-09-15T03:33:01.331Z,0.00
2022-09-15T03:34:01.290Z,0.00
2022-09-15T03:35:01.276Z,0.00
2022-09-15T03:36:01.282Z,0.00
2022-09-15T03:37:01.287Z,0.00
2022-09-15T03:38:01.263Z,0.00
2022-09-15T03:39:01.232Z,0.00
2022-09-15T03:40:01.335Z,0.00
2022-09-15T03:41:01.237Z,0.00
2022-09-15T03:42:01.195Z,0.00
2022-09-15T03:43:01.202Z,0.00
2022-09-15T03:44:01.199Z,0.00
2022-09-15T03:45:01.170Z,0.00
2022-09-15T03:46:01.380Z,0.00
2022-09-15T03:47:01.169Z,0.00
2022-09-15T03:48:01.160Z,0.00
2022-09-15T03:49:01.128Z,0.00
2022-09-15T03:50:01.197Z,0.00
2022-09-15T03:51:01.105Z,0.00
2022-09-15T03:52:01.091Z,0.00
2022-09-15T03:53:01.082Z,0.00
2022-09-15T03:54:01.098Z,0.00
2022-09-15T03:55:01.092Z,0.00
2022-09-15T03:56:01.042Z,0.00
2022-09-15T03:57:01.035Z,0.00
2022-09-15T03:58:01.025Z,0.00
2022-09-15T03:59:01.014Z,0.00
2022-09-15T04:00:01.021Z,0.00
2022-09-15T04:01:01.105Z,0.00
2022-09-15T04:02:01.056Z,0.00
2022-09-15T04:03:00.974Z,0.00
2022-09-15T04:04:00.983Z,0.00
2022-09-15T04:05:00.952Z,0.00
2022-09-15T04:06:00.938Z,0.00
2022-09-15T04:07:00.935Z,0.00
2022-09-15T04:08:00.928Z,0.00
2022-09-15T04:09:00.908Z,0.00
2022-09-15T04:10:00.898Z,0.00
2022-09-15T04:11:00.881Z,0.00
2022-09-15T04:12:00.894Z,0.00
2022-09-15T04:13:00.857Z,0.00
2022-09-15T04:14:00.850Z,0.00
2022-09-15T04:15:00.827Z,0.00
2022-09-15T04:16:00.879Z,0.00
2022-09-15T04:17:00.818Z,0.00
2022-09-15T04:18:00.813Z,0.00
2022-09-15T04:19:00.796Z,0.00
2022-09-15T04:20:00.797Z,0.00
2022-09-15T04:21:00.774Z,0.00
2022-09-15T04:22:00.762Z,0.00
2022-09-15T04:23:00.749Z,0.00
2022-09-15T04:24:00.738Z,0.00
2022-09-15T04:25:00.725Z,0.00
2022-09-15T04:26:00.733Z,0.00
2022-09-15T04:27:00.717Z,0.00
2022-09-15T04:28:00.687Z,0.00
2022-09-15T04:29:04.248Z,0.00
2022-09-15T04:30:00.674Z,0.00
2022-09-15T04:31:00.718Z,0.00
2022-09-15T04:32:00.647Z,0.00
2022-09-15T04:33:00.649Z,0.00
2022-09-15T04:34:00.626Z,0.00
2022-09-15T04:35:00.609Z,0.00
2022-09-15T04:36:00.624Z,0.00
2022-09-15T04:37:00.587Z,0.00
2022-09-15T04:38:00.569Z,0.00
2022-09-15T04:39:00.591Z,4.00
2022-09-15T04:40:00.626Z,4.00
2022-09-15T04:41:00.564Z,4.00
2022-09-15T04:42:00.534Z,4.00
2022-09-15T04:43:00.524Z,8.00
2022-09-15T04:44:00.509Z,4.00
2022-09-15T04:45:00.511Z,8.00
2022-09-15T04:46:00.504Z,8.00
2022-09-15T04:47:00.645Z,8.00
2022-09-15T04:48:00.463Z,12.00
2022-09-15T04:49:00.456Z,16.00
2022-09-15T04:50:00.437Z,16.00
2022-09-15T04:51:00.436Z,20.00
2022-09-15T04:52:00.470Z,24.00
2022-09-15T04:53:00.413Z,28.00
2022-09-15T04:54:00.412Z,36.00
2022-09-15T04:55:00.405Z,36.00
2022-09-15T04:56:00.387Z,44.00
2022-09-15T04:57:00.393Z,52.00
2022-09-15T04:58:00.420Z,60.00
2022-09-15T04:59:03.790Z,68.00
2022-09-15T05:00:00.336Z,76.00
2022-09-15T05:01:00.377Z,84.00
2022-09-15T05:02:00.441Z,100.00
2022-09-15T05:03:00.300Z,108.00
2022-09-15T05:04:00.372Z,116.00
2022-09-15T05:05:00.276Z,128.00
2022-09-15T05:06:00.262Z,144.00
2022-09-15T05:07:00.277Z,152.00
2022-09-15T05:08:00.291Z,164.00
2022-09-15T05:09:00.247Z,180.00
2022-09-15T05:10:00.219Z,192.00
2022-09-15T05:11:00.209Z,208.00
2022-09-15T05:12:00.209Z,228.00
2022-09-15T05:13:00.206Z,252.00
2022-09-15T05:14:00.201Z,272.00
2022-09-15T05:15:00.178Z,292.00
2022-09-15T05:16:00.266Z,316.00
2022-09-15T05:17:00.148Z,344.00
2022-09-15T05:18:00.131Z,368.00
2022-09-15T05:19:00.131Z,400.00
2022-09-15T05:20:00.194Z,432.00
2022-09-15T05:21:00.117Z,464.00
2022-09-15T05:22:00.091Z,504.00
2022-09-15T05:23:00.087Z,540.00
2022-09-15T05:24:00.106Z,580.00
2022-09-15T05:25:00.047Z,620.00
2022-09-15T05:26:00.076Z,660.00
2022-09-15T05:27:00.033Z,704.00
2022-09-15T05:28:00.020Z,748.00
2022-09-15T05:29:00.013Z,796.00
2022-09-15T05:30:17.752Z,844.00
2022-09-15T05:31:01.050Z,888.00
2022-09-15T05:31:59.968Z,932.00
2022-09-15T05:32:59.962Z,976.00
2022-09-15T05:33:59.962Z,1020.00
2022-09-15T05:34:59.969Z,1068.00
2022-09-15T05:35:59.946Z,1108.00
2022-09-15T05:36:59.938Z,1152.00
2022-09-15T05:37:59.906Z,1200.00
2022-09-15T05:38:59.897Z,1240.00
2022-09-15T05:40:00.097Z,1284.00
2022-09-15T05:40:59.886Z,1328.00
2022-09-15T05:41:59.878Z,1372.00
2022-09-15T05:42:59.870Z,1420.00
2022-09-15T05:43:59.840Z,1464.00
2022-09-15T05:44:59.843Z,1508.00
2022-09-15T05:45:59.834Z,1560.00
2022-09-15T05:46:59.845Z,1604.00
2022-09-15T05:47:59.787Z,1652.00
2022-09-15T05:48:59.791Z,1696.00
2022-09-15T05:49:59.797Z,1732.00
2022-09-15T05:50:59.773Z,1768.00
2022-09-15T05:51:59.746Z,1804.00
2022-09-15T05:52:59.736Z,1840.00
2022-09-15T05:54:00.292Z,1864.00
2022-09-15T05:54:59.745Z,1900.00
2022-09-15T05:55:59.727Z,1944.00
2022-09-15T05:56:59.692Z,2000.00
2022-09-15T05:57:59.888Z,2048.00
2022-09-15T05:58:59.703Z,2096.00
2022-09-15T05:59:59.686Z,2148.00
2022-09-15T06:00:59.654Z,2188.00
2022-09-15T06:01:59.712Z,2228.00
2022-09-15T06:02:59.704Z,2268.00
2022-09-15T06:03:59.613Z,2324.00
2022-09-15T06:04:59.636Z,2388.00
2022-09-15T06:05:59.603Z,2456.00
2022-09-15T06:06:59.613Z,2512.00
2022-09-15T06:07:59.633Z,2564.00
2022-09-15T06:08:59.835Z,2628.00
2022-09-15T06:09:59.554Z,2680.00
2022-09-15T06:10:59.545Z,2748.00
2022-09-15T06:11:59.541Z,2812.00
2022-09-15T06:12:59.564Z,2864.00
2022-09-15T06:13:59.631Z,2904.00
2022-09-15T06:14:59.495Z,2936.00
2022-09-15T06:15:59.574Z,2964.00
2022-09-15T06:16:59.490Z,2976.00
2022-09-15T06:17:59.493Z,2988.00
2022-09-15T06:18:59.468Z,3024.00
2022-09-15T06:19:59.457Z,3028.00
2022-09-15T06:20:59.439Z,3100.00
2022-09-15T06:21:59.437Z,3132.00
2022-09-15T06:22:59.395Z,3144.00
2022-09-15T06:23:59.402Z,3144.00
2022-09-15T06:24:59.401Z,3124.00
2022-09-15T06:25:59.362Z,3104.00
2022-09-15T06:26:59.408Z,3092.00
2022-09-15T06:27:59.370Z,3072.00
2022-09-15T06:28:59.369Z,3092.00
2022-09-15T06:29:59.341Z,3152.00
2022-09-15T06:30:59.341Z,3188.00
2022-09-15T06:31:59.361Z,3192.00
2022-09-15T06:32:59.312Z,3196.00
2022-09-15T06:33:59.286Z,3148.00
2022-09-15T06:34:59.351Z,3076.00
2022-09-15T06:35:59.254Z,2920.00
2022-09-15T06:36:59.277Z,2612.00
2022-09-15T06:37:59.304Z,2408.00
2022-09-15T06:38:59.240Z,2340.00
2022-09-15T06:39:59.351Z,2300.00
2022-09-15T06:40:59.221Z,2440.00
2022-09-15T06:42:02.681Z,2564.00
2022-09-15T06:42:59.199Z,2720.00
2022-09-15T06:43:59.314Z,2892.00
2022-09-15T06:44:59.189Z,2988.00
2022-09-15T06:45:59.218Z,2876.00
2022-09-15T06:46:59.150Z,2796.00
2022-09-15T06:48:22.936Z,2664.00
2022-09-15T06:49:00.148Z,2552.00
2022-09-15T06:49:59.118Z,2644.00
2022-09-15T06:50:59.086Z,2612.00
2022-09-15T06:51:59.112Z,2936.00
2022-09-15T06:52:59.097Z,3496.00
2022-09-15T06:53:59.079Z,3760.00
2022-09-15T06:54:59.043Z,3788.00
2022-09-15T06:55:59.065Z,3924.00
2022-09-15T06:56:59.036Z,4140.00
2022-09-15T06:57:59.312Z,4228.00
2022-09-15T06:58:59.004Z,4496.00
2022-09-15T06:59:59.077Z,4892.00
2022-09-15T07:00:59.015Z,4988.00
2022-09-15T07:02:04.104Z,5092.00
2022-09-15T07:03:00.106Z,5240.00
2022-09-15T07:03:58.942Z,5316.00
2022-09-15T07:04:58.929Z,5040.00
2022-09-15T07:05:58.941Z,4876.00
2022-09-15T07:06:58.949Z,4740.00
2022-09-15T07:07:58.908Z,4600.00
2022-09-15T07:08:58.959Z,4512.00
2022-09-15T07:09:58.876Z,4496.00
2022-09-15T07:10:58.884Z,4520.00
2022-09-15T07:11:58.883Z,4580.00
2022-09-15T07:12:58.850Z,4700.00
2022-09-15T07:13:58.836Z,4960.00
2022-09-15T07:14:58.855Z,5272.00
2022-09-15T07:15:58.926Z,5408.00
2022-09-15T07:16:58.926Z,5456.00
2022-09-15T07:17:58.800Z,5476.00
2022-09-15T07:18:58.778Z,5564.00
2022-09-15T07:19:58.795Z,5692.00
2022-09-15T07:20:58.897Z,5600.00
2022-09-15T07:21:59.359Z,5344.00
2022-09-15T07:22:58.733Z,5128.00
2022-09-15T07:24:00.699Z,4752.00
2022-09-15T07:24:59.716Z,4472.00
2022-09-15T07:25:58.717Z,4084.00
2022-09-15T07:26:58.688Z,3872.00
2022-09-15T07:27:58.685Z,3968.00
2022-09-15T07:28:58.705Z,3424.00
2022-09-15T07:29:58.676Z,2984.00
2022-09-15T07:30:58.686Z,3284.00
2022-09-15T07:31:58.741Z,3484.00
2022-09-15T07:32:58.621Z,3528.00
2022-09-15T07:33:58.612Z,3484.00
2022-09-15T07:34:58.696Z,3188.00
2022-09-15T07:35:58.650Z,3240.00
2022-09-15T07:36:58.615Z,3184.00
2022-09-15T07:37:58.578Z,2924.00
2022-09-15T07:38:58.590Z,3116.00
2022-09-15T07:39:58.624Z,3236.00
2022-09-15T07:40:58.559Z,3136.00
2022-09-15T07:41:58.551Z,3016.00
2022-09-15T07:42:58.510Z,3164.00
2022-09-15T07:43:58.528Z,3220.00
2022-09-15T07:44:58.517Z,3424.00
2022-09-15T07:45:58.576Z,4112.00
2022-09-15T07:46:58.465Z,4028.00
2022-09-15T07:47:58.551Z,3556.00
2022-09-15T07:48:58.468Z,3600.00
2022-09-15T07:49:58.457Z,3944.00
2022-09-15T07:50:58.507Z,4500.00
2022-09-15T07:51:58.410Z,4384.00
2022-09-15T07:52:58.434Z,4252.00
2022-09-15T07:53:58.424Z,4516.00
2022-09-15T07:54:58.409Z,4416.00
2022-09-15T07:55:58.373Z,4120.00
2022-09-15T07:56:58.364Z,3612.00
2022-09-15T07:57:58.381Z,3392.00
2022-09-15T07:58:58.358Z,3372.00
2022-09-15T07:59:58.354Z,3900.00
2022-09-15T08:00:58.397Z,4536.00
2022-09-15T08:01:58.346Z,4788.00
2022-09-15T08:02:58.315Z,4860.00
2022-09-15T08:03:58.332Z,4952.00
2022-09-15T08:04:58.272Z,5640.00
2022-09-15T08:05:58.319Z,6244.00
2022-09-15T08:06:58.282Z,6740.00
2022-09-15T08:07:58.256Z,7100.00
2022-09-15T08:09:00.772Z,7148.00
2022-09-15T08:09:58.216Z,7204.00
2022-09-15T08:10:58.208Z,7284.00
2022-09-15T08:11:58.224Z,7216.00
2022-09-15T08:12:58.222Z,7132.00
2022-09-15T08:13:58.182Z,7256.00
2022-09-15T08:14:58.162Z,7548.00
2022-09-15T08:15:58.197Z,7716.00
2022-09-15T08:16:58.163Z,7592.00
2022-09-15T08:17:58.159Z,7284.00
2022-09-15T08:18:58.127Z,6960.00
2022-09-15T08:19:58.132Z,6676.00
2022-09-15T08:20:58.096Z,6516.00
2022-09-15T08:21:58.109Z,6496.00
2022-09-15T08:22:58.097Z,6576.00
2022-09-15T08:23:58.070Z,6648.00
2022-09-15T08:24:58.051Z,6696.00
2022-09-15T08:25:58.069Z,6876.00
2022-09-15T08:26:58.042Z,6996.00
2022-09-15T08:27:58.037Z,6976.00
2022-09-15T08:28:58.042Z,6856.00
2022-09-15T08:29:57.999Z,6756.00
2022-09-15T08:32:15.138Z,6744.00
2022-09-15T08:33:15.169Z,6892.00
2022-09-15T08:34:15.068Z,7108.00
2022-09-15T08:35:15.153Z,7468.00
2022-09-15T08:36:15.042Z,7964.00
2022-09-15T08:37:15.054Z,8344.00
2022-09-15T08:38:15.043Z,8500.00
2022-09-15T08:39:15.008Z,8440.00
2022-09-15T08:40:15.050Z,8212.00
2022-09-15T08:41:14.979Z,8144.00
2022-09-15T08:42:15.018Z,8252.00
2022-09-15T08:43:14.984Z,8400.00
2022-09-15T08:44:14.956Z,8460.00
2022-09-15T08:45:14.933Z,8532.00
2022-09-15T08:46:15.025Z,8752.00
2022-09-15T08:47:14.917Z,9056.00
2022-09-15T08:48:15.052Z,9040.00
2022-09-15T08:49:14.897Z,8848.00
2022-09-15T08:50:14.882Z,8512.00
2022-09-15T08:51:14.904Z,8376.00
2022-09-15T08:52:14.907Z,8160.00
2022-09-15T08:53:14.865Z,7724.00
2022-09-15T08:54:14.868Z,7024.00
2022-09-15T08:55:14.829Z,6644.00
2022-09-15T08:56:14.854Z,6596.00
2022-09-15T08:57:14.834Z,6624.00
2022-09-15T08:58:14.796Z,6860.00
2022-09-15T08:59:14.868Z,7372.00
2022-09-15T09:00:14.807Z,8108.00
2022-09-15T09:01:14.818Z,8760.00
2022-09-15T09:02:14.899Z,9596.00
2022-09-15T09:03:15.716Z,10168.00
2022-09-15T09:04:18.061Z,10352.00
2022-09-15T09:05:14.736Z,10476.00
2022-09-15T09:06:14.786Z,10968.00
2022-09-15T09:07:14.745Z,11032.00
2022-09-15T09:08:14.715Z,10836.00
2022-09-15T09:09:14.666Z,10152.00
2022-09-15T09:10:14.695Z,10060.00
2022-09-15T09:11:14.709Z,10064.00
2022-09-15T09:12:14.644Z,9988.00
2022-09-15T09:13:14.642Z,9972.00
2022-09-15T09:14:14.609Z,9760.00
2022-09-15T09:15:14.620Z,9436.00
2022-09-15T09:16:14.702Z,9404.00
2022-09-15T09:17:14.595Z,9564.00
2022-09-15T09:18:14.589Z,9540.00
2022-09-15T09:19:14.593Z,10136.00
2022-09-15T09:20:14.563Z,10772.00
2022-09-15T09:21:14.549Z,10628.00
2022-09-15T09:22:14.532Z,11056.00
2022-09-15T09:23:14.550Z,10764.00
2022-09-15T09:24:14.583Z,9280.00
2022-09-15T09:25:26.752Z,7500.00
2022-09-15T09:26:15.488Z,6228.00
2022-09-15T09:27:14.493Z,6196.00
2022-09-15T09:28:14.461Z,6844.00
2022-09-15T09:29:14.479Z,7552.00
2022-09-15T09:30:14.535Z,7472.00
2022-09-15T09:31:14.453Z,6564.00
2022-09-15T09:32:16.801Z,5872.00
2022-09-15T09:33:14.577Z,5256.00
2022-09-15T09:34:14.458Z,5160.00
2022-09-15T09:35:14.414Z,5008.00
2022-09-15T09:36:14.386Z,4940.00
2022-09-15T09:37:14.373Z,5316.00
2022-09-15T09:38:14.370Z,5588.00
2022-09-15T09:39:14.388Z,5980.00
2022-09-15T09:40:14.483Z,5936.00
2022-09-15T09:41:14.394Z,5860.00
2022-09-15T09:42:14.351Z,5936.00
2022-09-15T09:43:14.312Z,6420.00
2022-09-15T09:44:14.329Z,7460.00
2022-09-15T09:45:14.323Z,8684.00
2022-09-15T09:46:14.354Z,9616.00
2022-09-15T09:47:14.249Z,10020.00
2022-09-15T09:48:14.299Z,9756.00
2022-09-15T09:49:14.261Z,9388.00
2022-09-15T09:50:14.228Z,9104.00
2022-09-15T09:51:14.209Z,9052.00
2022-09-15T09:52:14.200Z,9200.00
2022-09-15T09:53:14.198Z,9292.00
2022-09-15T09:54:14.267Z,9240.00
2022-09-15T09:55:14.191Z,9144.00
2022-09-15T09:56:14.193Z,9076.00
2022-09-15T09:57:14.173Z,8948.00
2022-09-15T09:58:14.135Z,8756.00
2022-09-15T09:59:14.121Z,8568.00
2022-09-15T10:00:14.204Z,8584.00
2022-09-15T10:01:14.160Z,8856.00
2022-09-15T10:02:14.108Z,9240.00
2022-09-15T10:03:14.122Z,9580.00
2022-09-15T10:04:14.068Z,9920.00
2022-09-15T10:05:14.104Z,10144.00
2022-09-15T10:06:14.048Z,10288.00
2022-09-15T10:07:14.043Z,10540.00
2022-09-15T10:08:14.049Z,10584.00
2022-09-15T10:09:14.029Z,10180.00
2022-09-15T10:10:14.402Z,9856.00
2022-09-15T10:11:14.057Z,9736.00
2022-09-15T10:12:13.986Z,9580.00
2022-09-15T10:13:14.874Z,9672.00
2022-09-15T10:14:13.971Z,9932.00
2022-09-15T10:15:13.954Z,10084.00
2022-09-15T10:16:14.012Z,9964.00
2022-09-15T10:17:13.947Z,10424.00
2022-09-15T10:18:13.916Z,11468.00
2022-09-15T10:19:13.908Z,12652.00
2022-09-15T10:20:13.926Z,13332.00
2022-09-15T10:21:13.900Z,13196.00
2022-09-15T10:22:13.917Z,12772.00
2022-09-15T10:23:13.883Z,12444.00
2022-09-15T10:24:17.968Z,12292.00
2022-09-15T10:25:13.840Z,11772.00
2022-09-15T10:26:13.861Z,10856.00
2022-09-15T10:27:13.905Z,10116.00
2022-09-15T10:28:13.819Z,10100.00
2022-09-15T10:29:13.792Z,10508.00
2022-09-15T10:30:13.795Z,10944.00
2022-09-15T10:31:14.013Z,11384.00
2022-09-15T10:32:13.801Z,11956.00
2022-09-15T10:33:13.868Z,12436.00
2022-09-15T10:34:13.770Z,12964.00
2022-09-15T10:35:13.738Z,13508.00
2022-09-15T10:36:13.740Z,13572.00
2022-09-15T10:37:13.724Z,13316.00
2022-09-15T10:38:13.717Z,12908.00
2022-09-15T10:39:13.705Z,12508.00
2022-09-15T10:40:13.821Z,12492.00
2022-09-15T10:41:13.676Z,12564.00
2022-09-15T10:42:13.670Z,12988.00
2022-09-15T10:43:13.664Z,13756.00
2022-09-15T10:44:13.657Z,14052.00
2022-09-15T10:45:13.628Z,14132.00
2022-09-15T10:46:13.723Z,14160.00
2022-09-15T10:47:13.608Z,14008.00
2022-09-15T10:48:13.589Z,13740.00
2022-09-15T10:49:13.595Z,13468.00
2022-09-15T10:50:13.623Z,13424.00
2022-09-15T10:51:13.586Z,13368.00
2022-09-15T10:52:13.560Z,13536.00
2022-09-15T10:53:13.538Z,13604.00
2022-09-15T10:54:13.545Z,13400.00
2022-09-15T10:55:13.531Z,13116.00
2022-09-15T10:56:13.496Z,12912.00
2022-09-15T10:57:13.580Z,12628.00
2022-09-15T10:58:13.510Z,12400.00
2022-09-15T10:59:13.592Z,11984.00
2022-09-15T11:00:13.468Z,11668.00
2022-09-15T11:01:13.535Z,11504.00
2022-09-15T11:02:13.513Z,11608.00
2022-09-15T11:03:14.391Z,11808.00
2022-09-15T11:04:13.432Z,12184.00
2022-09-15T11:05:13.400Z,12532.00
2022-09-15T11:06:13.401Z,12552.00
2022-09-15T11:07:13.380Z,12868.00
2022-09-15T11:08:13.382Z,13156.00
2022-09-15T11:09:13.371Z,13504.00
2022-09-15T11:10:13.350Z,13748.00
2022-09-15T11:11:13.401Z,13612.00
2022-09-15T11:12:13.354Z,13496.00
2022-09-15T11:13:13.348Z,13560.00
2022-09-15T11:14:13.316Z,13944.00
2022-09-15T11:15:13.328Z,14324.00
2022-09-15T11:16:13.376Z,14584.00
2022-09-15T11:17:13.291Z,14728.00
2022-09-15T11:18:13.290Z,14784.00
2022-09-15T11:19:13.251Z,14740.00
2022-09-15T11:20:13.330Z,14624.00
2022-09-15T11:21:13.334Z,14516.00
2022-09-15T11:22:13.226Z,14176.00
2022-09-15T11:23:13.221Z,13724.00
2022-09-15T11:24:13.192Z,13368.00
2022-09-15T11:25:13.175Z,13200.00
2022-09-15T11:26:13.169Z,12940.00
2022-09-15T11:27:13.183Z,12772.00
2022-09-15T11:28:13.166Z,12676.00
2022-09-15T11:29:13.174Z,12820.00
2022-09-15T11:30:13.130Z,13176.00
2022-09-15T11:31:13.225Z,13384.00
2022-09-15T11:32:13.125Z,13452.00
2022-09-15T11:33:13.103Z,13408.00
2022-09-15T11:34:13.092Z,13148.00
2022-09-15T11:35:13.084Z,12788.00
2022-09-15T11:36:13.100Z,12456.00
2022-09-15T11:37:13.063Z,12156.00
2022-09-15T11:38:13.226Z,11964.00
2022-09-15T11:39:13.029Z,12056.00
2022-09-15T11:40:13.126Z,12084.00
2022-09-15T11:41:13.028Z,11896.00
2022-09-15T11:42:13.466Z,11628.00
2022-09-15T11:43:12.983Z,11320.00
2022-09-15T11:44:16.174Z,11004.00
2022-09-15T11:45:12.960Z,10768.00
2022-09-15T11:46:12.988Z,10516.00
2022-09-15T11:47:13.008Z,10096.00
2022-09-15T11:48:12.936Z,9656.00
2022-09-15T11:49:12.922Z,9504.00
2022-09-15T11:50:12.904Z,9744.00
2022-09-15T11:51:12.901Z,9900.00
2022-09-15T11:52:12.906Z,10516.00
2022-09-15T11:53:12.866Z,11192.00
2022-09-15T11:54:12.849Z,11984.00
2022-09-15T11:55:12.874Z,12696.00
2022-09-15T11:56:12.844Z,13048.00
2022-09-15T11:57:12.822Z,13136.00
2022-09-15T11:58:12.845Z,13480.00
2022-09-15T11:59:12.804Z,14220.00
2022-09-15T12:00:12.803Z,14556.00
2022-09-15T12:01:12.811Z,14360.00
2022-09-15T12:02:12.911Z,14196.00
2022-09-15T12:03:12.850Z,14300.00
2022-09-15T12:04:12.791Z,14396.00
2022-09-15T12:05:12.763Z,14624.00
2022-09-15T12:06:13.386Z,14744.00
2022-09-15T12:07:14.419Z,14096.00
2022-09-15T12:08:12.695Z,13812.00
2022-09-15T12:09:12.689Z,13100.00
2022-09-15T12:10:12.696Z,12596.00
2022-09-15T12:11:12.703Z,12292.00
2022-09-15T12:12:12.670Z,12056.00
2022-09-15T12:13:12.708Z,12140.00
2022-09-15T12:14:12.640Z,12324.00
2022-09-15T12:15:12.636Z,12460.00
2022-09-15T12:16:12.647Z,12808.00
2022-09-15T12:17:12.600Z,13100.00
2022-09-15T12:18:34.465Z,13120.00
2022-09-15T12:19:13.592Z,13324.00
2022-09-15T12:20:12.616Z,13680.00
2022-09-15T12:21:12.551Z,14088.00
2022-09-15T12:22:12.549Z,14380.00
2022-09-15T12:23:12.566Z,14528.00
2022-09-15T12:24:12.548Z,14480.00
2022-09-15T12:25:12.516Z,14320.00
2022-09-15T12:26:12.512Z,14204.00
2022-09-15T12:27:12.551Z,14216.00
2022-09-15T12:28:12.508Z,14124.00
2022-09-15T12:29:12.487Z,13988.00
2022-09-15T12:30:12.459Z,13796.00